createdAt,value
2018-07-13T00:01:03.565Z,19.09
2018-07-13T00:03:33.622Z,18.98
2018-07-13T00:06:02.201Z,18.90
2018-07-13T00:08:30.813Z,18.84
2018-07-13T00:10:59.410Z,18.78
2018-07-13T00:13:28.259Z,18.82
2018-07-13T00:16:03.301Z,18.75
2018-07-13T00:18:32.264Z,18.79
2018-07-13T00:21:00.923Z,18.78
2018-07-13T00:23:29.533Z,18.81
2018-07-13T00:25:58.118Z,18.79
2018-07-13T00:28:26.704Z,18.76
2018-07-13T00:30:55.378Z,18.79
2018-07-13T00:33:23.923Z,18.75
2018-07-13T00:35:52.464Z,18.74
2018-07-13T00:38:21.114Z,18.70
2018-07-13T00:40:50.100Z,18.67
2018-07-13T00:43:18.695Z,18.51
2018-07-13T00:45:47.296Z,18.41
2018-07-13T00:48:16.802Z,18.46
2018-07-13T00:50:45.371Z,18.44
2018-07-13T00:53:13.969Z,18.45
2018-07-13T00:55:42.556Z,18.41
2018-07-13T00:58:11.172Z,18.32
2018-07-13T01:00:40.717Z,18.26
2018-07-13T01:03:10.396Z,18.26
2018-07-13T01:05:39.144Z,18.27
2018-07-13T01:08:07.738Z,18.26
2018-07-13T01:10:37.123Z,18.23
2018-07-13T01:13:05.793Z,18.16
2018-07-13T01:15:34.418Z,18.13
2018-07-13T01:18:03.084Z,18.10
2018-07-13T01:20:35.009Z,18.13
2018-07-13T01:23:04.426Z,18.16
2018-07-13T01:25:33.173Z,18.09
2018-07-13T01:28:01.742Z,18.09
2018-07-13T01:30:31.073Z,18.02
2018-07-13T01:32:59.635Z,17.88
2018-07-13T01:35:28.352Z,17.87
2018-07-13T01:37:57.489Z,17.77
2018-07-13T01:40:26.276Z,17.76
2018-07-13T01:42:54.912Z,17.67
2018-07-13T01:45:23.549Z,17.56
2018-07-13T01:47:52.190Z,17.45
2018-07-13T01:50:20.759Z,17.35
2018-07-13T01:52:49.352Z,17.25
2018-07-13T01:55:17.986Z,17.25
2018-07-13T01:57:46.567Z,17.26
2018-07-13T02:00:15.184Z,17.29
2018-07-13T02:02:43.839Z,17.32
2018-07-13T02:05:12.458Z,17.22
2018-07-13T02:07:43.918Z,17.18
2018-07-13T02:10:12.488Z,17.22
2018-07-13T02:12:41.059Z,17.21
2018-07-13T02:15:09.720Z,17.18
2018-07-13T02:17:38.446Z,17.01
2018-07-13T02:20:07.119Z,17.22
2018-07-13T02:22:35.721Z,17.26
2018-07-13T02:25:04.466Z,17.21
2018-07-13T02:27:33.063Z,17.21
2018-07-13T02:30:01.688Z,17.18
2018-07-13T02:32:30.359Z,17.13
2018-07-13T02:34:59.016Z,17.05
2018-07-13T02:37:34.165Z,16.98
2018-07-13T02:40:02.828Z,16.96
2018-07-13T02:42:31.804Z,16.99
2018-07-13T02:45:00.413Z,16.92
2018-07-13T02:47:29.062Z,16.85
2018-07-13T02:49:57.671Z,16.79
2018-07-13T02:52:26.278Z,16.81
2018-07-13T02:54:54.985Z,16.85
2018-07-13T02:57:23.837Z,16.87
2018-07-13T02:59:52.421Z,16.83
2018-07-13T03:02:21.066Z,16.76
2018-07-13T03:04:50.146Z,16.67
2018-07-13T03:07:18.777Z,16.64
2018-07-13T03:09:47.427Z,16.60
2018-07-13T03:12:16.068Z,16.60
2018-07-13T03:14:45.488Z,16.59
2018-07-13T03:17:14.482Z,16.67
2018-07-13T03:19:43.120Z,16.69
2018-07-13T03:22:11.828Z,16.70
2018-07-13T03:24:40.518Z,16.67
2018-07-13T03:27:09.238Z,16.60
2018-07-13T03:29:38.231Z,16.60
2018-07-13T03:32:06.831Z,16.57
2018-07-13T03:34:35.887Z,16.54
2018-07-13T03:37:04.550Z,16.56
2018-07-13T03:39:33.422Z,16.48
2018-07-13T03:42:02.098Z,16.50
2018-07-13T03:44:30.740Z,16.46
2018-07-13T03:46:59.348Z,16.48
2018-07-13T03:49:27.936Z,16.49
2018-07-13T03:51:57.060Z,16.49
2018-07-13T03:54:25.717Z,16.53
2018-07-13T03:56:54.312Z,16.59
2018-07-13T03:59:22.963Z,16.58
2018-07-13T04:01:51.539Z,16.56
2018-07-13T04:04:20.467Z,16.54
2018-07-13T04:06:49.406Z,16.47
2018-07-13T04:09:18.103Z,16.46
2018-07-13T04:11:46.730Z,16.47
2018-07-13T04:14:16.230Z,16.43
2018-07-13T04:16:44.822Z,16.43
2018-07-13T04:19:13.544Z,16.38
2018-07-13T04:21:42.213Z,16.37
2018-07-13T04:24:11.582Z,16.36
2018-07-13T04:26:41.099Z,16.42
2018-07-13T04:29:09.894Z,16.37
2018-07-13T04:31:38.558Z,16.43
2018-07-13T04:34:07.215Z,16.50
2018-07-13T04:36:35.797Z,16.54
2018-07-13T04:39:05.434Z,16.62
2018-07-13T04:41:34.154Z,16.67
2018-07-13T04:44:02.956Z,16.78
2018-07-13T04:46:31.597Z,16.81
2018-07-13T04:49:00.207Z,16.84
2018-07-13T04:51:28.904Z,16.90
2018-07-13T04:53:57.686Z,16.86
2018-07-13T04:56:26.616Z,16.88
2018-07-13T04:58:55.286Z,16.87
2018-07-13T05:01:24.194Z,16.90
2018-07-13T05:03:52.939Z,16.88
2018-07-13T05:06:21.843Z,16.87
2018-07-13T05:08:50.581Z,16.94
2018-07-13T05:11:19.680Z,17.02
2018-07-13T05:13:50.154Z,17.05
2018-07-13T05:16:19.209Z,17.14
2018-07-13T05:18:48.765Z,17.19
2018-07-13T05:21:17.962Z,17.23
2018-07-13T05:23:47.841Z,17.28
2018-07-13T05:26:16.505Z,17.37
2018-07-13T05:28:46.561Z,17.43
2018-07-13T05:31:16.375Z,17.45
2018-07-13T05:33:45.060Z,17.51
2018-07-13T05:36:14.577Z,17.54
2018-07-13T05:38:43.337Z,17.63
2018-07-13T05:41:12.727Z,17.77
2018-07-13T05:43:42.629Z,17.87
2018-07-13T05:46:12.890Z,17.97
2018-07-13T05:48:41.890Z,18.02
2018-07-13T05:51:11.432Z,18.08
2018-07-13T05:53:40.899Z,18.07
2018-07-13T05:56:10.584Z,18.14
2018-07-13T05:58:39.264Z,18.21
2018-07-13T06:01:08.016Z,18.24
2018-07-13T06:03:36.839Z,18.28
2018-07-13T06:06:06.035Z,18.23
2018-07-13T06:08:34.678Z,18.24
2018-07-13T06:11:03.372Z,18.36
2018-07-13T06:13:31.981Z,18.45
2018-07-13T06:16:01.175Z,18.60
2018-07-13T06:18:29.869Z,18.70
2018-07-13T06:20:58.499Z,18.76
2018-07-13T06:23:27.159Z,18.81
2018-07-13T06:25:55.779Z,18.90
2018-07-13T06:28:24.459Z,18.99
2018-07-13T06:30:53.126Z,19.03
2018-07-13T06:33:21.717Z,19.21
2018-07-13T06:35:51.557Z,19.32
2018-07-13T06:38:20.194Z,19.40
2018-07-13T06:40:50.140Z,19.45
2018-07-13T06:43:18.768Z,19.56
2018-07-13T06:45:47.405Z,19.63
2018-07-13T06:48:16.060Z,19.68
2018-07-13T06:50:44.701Z,19.80
2018-07-13T06:53:15.710Z,19.84
2018-07-13T06:55:44.696Z,19.92
2018-07-13T06:58:24.616Z,19.99
2018-07-13T07:00:55.923Z,20.12
2018-07-13T07:03:25.804Z,20.31
2018-07-13T07:05:55.861Z,20.36
2018-07-13T07:08:25.294Z,20.48
2018-07-13T07:10:55.260Z,20.56
2018-07-13T07:13:31.633Z,20.61
2018-07-13T07:16:01.429Z,20.59
2018-07-13T07:18:30.936Z,20.70
2018-07-13T07:20:59.872Z,20.73
2018-07-13T07:23:29.461Z,20.86
2018-07-13T07:26:00.348Z,20.86
2018-07-13T07:28:29.829Z,21.06
2018-07-13T07:30:59.981Z,21.20
2018-07-13T07:33:29.647Z,21.38
2018-07-13T07:35:58.261Z,21.48
2018-07-13T07:38:27.632Z,21.57
2018-07-13T07:40:56.378Z,21.67
2018-07-13T07:43:25.016Z,21.77
2018-07-13T07:45:53.650Z,21.81
2018-07-13T07:48:22.296Z,21.74
2018-07-13T07:50:50.893Z,21.92
2018-07-13T07:53:19.546Z,22.03
2018-07-13T07:55:48.147Z,22.14
2018-07-13T07:58:16.784Z,22.29
2018-07-13T08:00:45.420Z,22.45
2018-07-13T08:03:14.169Z,22.60
2018-07-13T08:05:42.705Z,22.69
2018-07-13T08:08:11.334Z,22.69
2018-07-13T08:10:39.943Z,22.86
2018-07-13T08:13:08.559Z,22.97
2018-07-13T08:15:38.202Z,23.10
2018-07-13T08:18:06.944Z,23.15
2018-07-13T08:20:37.941Z,23.22
2018-07-13T08:23:08.303Z,23.26
2018-07-13T08:25:37.961Z,23.35
2018-07-13T08:28:08.051Z,23.44
2018-07-13T08:30:52.100Z,23.52
2018-07-13T08:33:20.965Z,23.60
2018-07-13T08:35:50.607Z,23.76
2018-07-13T08:38:19.209Z,23.89
2018-07-13T08:40:48.146Z,23.90
2018-07-13T08:43:17.036Z,23.98
2018-07-13T08:45:46.527Z,24.18
2018-07-13T08:48:15.206Z,24.30
2018-07-13T08:50:44.786Z,24.38
2018-07-13T08:53:13.618Z,24.41
2018-07-13T08:55:42.376Z,24.46
2018-07-13T08:58:11.085Z,24.52
2018-07-13T09:00:40.087Z,24.57
2018-07-13T09:03:08.701Z,24.59
2018-07-13T09:05:37.471Z,24.69
2018-07-13T09:08:07.245Z,24.81
2018-07-13T09:10:35.924Z,24.90
2018-07-13T09:13:05.887Z,24.90
2018-07-13T09:15:34.566Z,24.93
2018-07-13T09:18:07.035Z,24.92
2018-07-13T09:20:35.971Z,24.96
2018-07-13T09:23:04.636Z,25.07
2018-07-13T09:25:33.268Z,25.21
2018-07-13T09:28:01.987Z,25.29
2018-07-13T09:30:30.674Z,25.22
2018-07-13T09:33:00.453Z,25.36
2018-07-13T09:35:30.304Z,25.48
2018-07-13T09:37:59.643Z,25.56
2018-07-13T09:40:28.508Z,25.66
2018-07-13T09:42:58.211Z,25.76
2018-07-13T09:45:26.873Z,25.86
2018-07-13T09:47:55.546Z,25.93
2018-07-13T09:50:24.252Z,26.04
2018-07-13T09:52:52.887Z,26.11
2018-07-13T09:55:21.552Z,26.19
2018-07-13T09:57:50.832Z,26.30
2018-07-13T10:00:19.565Z,26.15
2018-07-13T10:02:48.206Z,26.16
2018-07-13T10:05:17.020Z,26.36
2018-07-13T10:07:45.663Z,26.49
2018-07-13T10:10:15.089Z,26.62
2018-07-13T10:12:43.804Z,26.73
2018-07-13T10:15:13.112Z,26.82
2018-07-13T10:17:41.982Z,26.80
2018-07-13T10:20:10.841Z,26.82
2018-07-13T10:22:40.403Z,26.72
2018-07-13T10:25:09.140Z,26.72
2018-07-13T10:27:38.860Z,26.85
2018-07-13T10:30:10.682Z,26.95
2018-07-13T10:32:39.407Z,27.06
2018-07-13T10:35:08.676Z,27.13
2018-07-13T10:37:37.384Z,26.99
2018-07-13T10:40:05.955Z,27.07
2018-07-13T10:42:34.605Z,26.92
2018-07-13T10:45:03.487Z,26.92
2018-07-13T10:47:32.324Z,26.89
2018-07-13T10:50:00.921Z,26.97
2018-07-13T10:52:29.535Z,26.93
2018-07-13T10:54:58.979Z,27.10
2018-07-13T10:57:27.617Z,27.20
2018-07-13T10:59:56.232Z,27.30
2018-07-13T11:02:24.922Z,27.27
2018-07-13T11:04:53.647Z,27.37
2018-07-13T11:07:22.329Z,27.52
2018-07-13T11:09:51.961Z,27.62
2018-07-13T11:12:20.929Z,27.55
2018-07-13T11:14:49.616Z,27.52
2018-07-13T11:17:18.387Z,27.30
2018-07-13T11:19:47.033Z,27.29
2018-07-13T11:22:15.755Z,27.17
2018-07-13T11:24:44.407Z,27.23
2018-07-13T11:27:12.970Z,27.30
2018-07-13T11:29:41.714Z,27.45
2018-07-13T11:32:10.335Z,27.69
2018-07-13T11:34:39.019Z,27.75
2018-07-13T11:37:08.371Z,27.89
2018-07-13T11:39:36.912Z,28.12
2018-07-13T11:42:05.583Z,28.29
2018-07-13T11:44:34.283Z,28.40
2018-07-13T11:47:02.923Z,28.45
2018-07-13T11:49:31.553Z,28.54
2018-07-13T11:52:00.155Z,28.64
2018-07-13T11:54:28.772Z,28.55
2018-07-13T11:56:57.401Z,28.50
2018-07-13T11:59:26.199Z,28.61
2018-07-13T12:01:54.944Z,28.63
2018-07-13T12:04:23.578Z,28.48
2018-07-13T12:06:52.950Z,28.36
2018-07-13T12:09:21.584Z,28.40
2018-07-13T12:11:50.290Z,28.47
2018-07-13T12:14:19.065Z,28.49
2018-07-13T12:16:47.947Z,28.54
2018-07-13T12:19:16.614Z,28.76
2018-07-13T12:21:45.227Z,28.73
2018-07-13T12:24:13.899Z,28.44
2018-07-13T12:26:42.523Z,28.42
2018-07-13T12:29:11.125Z,28.49
2018-07-13T12:31:39.746Z,28.67
2018-07-13T12:34:08.364Z,28.78
2018-07-13T12:36:37.004Z,28.82
2018-07-13T12:39:06.202Z,29.03
2018-07-13T12:41:34.855Z,29.20
2018-07-13T12:44:03.517Z,29.36
2018-07-13T12:46:32.242Z,29.45
2018-07-13T12:49:00.879Z,29.61
2018-07-13T12:51:29.512Z,30.06
2018-07-13T12:53:58.905Z,30.11
2018-07-13T12:56:28.345Z,29.84
2018-07-13T12:58:57.025Z,29.50
2018-07-13T13:01:25.727Z,29.40
2018-07-13T13:03:54.350Z,30.75
2018-07-13T13:06:22.994Z,31.49
2018-07-13T13:08:51.667Z,31.02
2018-07-13T13:11:20.451Z,30.95
2018-07-13T13:13:49.150Z,31.42
2018-07-13T13:16:18.451Z,32.53
2018-07-13T13:18:47.416Z,33.81
2018-07-13T13:21:16.085Z,34.80
2018-07-13T13:23:45.222Z,35.91
2018-07-13T13:26:14.202Z,35.91
2018-07-13T13:28:43.401Z,36.31
2018-07-13T13:31:12.031Z,36.86
2018-07-13T13:33:40.656Z,37.34
2018-07-13T13:36:09.261Z,37.19
2018-07-13T13:38:37.881Z,37.30
2018-07-13T13:41:06.538Z,37.72
2018-07-13T13:43:35.540Z,37.87
2018-07-13T13:46:04.189Z,38.16
2018-07-13T13:48:33.358Z,37.20
2018-07-13T13:51:01.943Z,37.08
2018-07-13T13:53:30.545Z,37.49
2018-07-13T13:55:59.236Z,37.39
2018-07-13T13:58:27.902Z,36.91
2018-07-13T14:00:56.587Z,36.24
2018-07-13T14:03:25.399Z,36.49
2018-07-13T14:05:54.016Z,36.79
2018-07-13T14:08:22.620Z,37.13
2018-07-13T14:10:51.754Z,37.34
2018-07-13T14:13:20.447Z,36.90
2018-07-13T14:15:49.217Z,35.67
2018-07-13T14:18:17.842Z,35.87
2018-07-13T14:20:46.470Z,36.26
2018-07-13T14:23:15.104Z,35.01
2018-07-13T14:25:43.761Z,35.30
2018-07-13T14:28:12.349Z,35.60
2018-07-13T14:30:41.026Z,34.79
2018-07-13T14:33:09.618Z,35.33
2018-07-13T14:35:38.359Z,35.20
2018-07-13T14:38:06.926Z,35.90
2018-07-13T14:40:35.583Z,35.64
2018-07-13T14:43:04.231Z,35.49
2018-07-13T14:45:32.826Z,35.14
2018-07-13T14:48:01.488Z,34.78
2018-07-13T14:50:30.114Z,35.45
2018-07-13T14:52:58.707Z,34.35
2018-07-13T14:55:27.344Z,33.84
2018-07-13T14:57:56.265Z,33.85
2018-07-13T15:00:24.878Z,32.78
2018-07-13T15:02:53.511Z,32.93
2018-07-13T15:05:22.109Z,32.83
2018-07-13T15:07:50.734Z,32.79
2018-07-13T15:10:19.496Z,33.62
2018-07-13T15:12:48.077Z,33.92
2018-07-13T15:15:16.872Z,33.68
2018-07-13T15:17:45.718Z,33.95
2018-07-13T15:20:14.353Z,33.96
2018-07-13T15:22:43.054Z,33.43
2018-07-13T15:25:11.668Z,33.78
2018-07-13T15:27:40.285Z,33.81
2018-07-13T15:30:08.947Z,33.56
2018-07-13T15:32:37.560Z,33.89
2018-07-13T15:35:06.401Z,33.91
2018-07-13T15:37:35.104Z,33.75
2018-07-13T15:40:03.871Z,32.77
2018-07-13T15:42:32.565Z,33.07
2018-07-13T15:45:01.140Z,31.97
2018-07-13T15:47:30.255Z,32.25
2018-07-13T15:49:58.966Z,32.65
2018-07-13T15:52:27.548Z,32.23
2018-07-13T15:54:56.089Z,32.08
2018-07-13T15:57:24.701Z,32.10
2018-07-13T15:59:53.393Z,32.02
2018-07-13T16:02:22.028Z,31.82
2018-07-13T16:04:50.611Z,31.47
2018-07-13T16:07:19.289Z,31.57
2018-07-13T16:09:47.974Z,31.46
2018-07-13T16:12:16.906Z,31.21
2018-07-13T16:14:45.633Z,31.31
2018-07-13T16:17:14.398Z,31.31
2018-07-13T16:19:43.165Z,31.29
2018-07-13T16:22:11.902Z,31.41
2018-07-13T16:24:40.583Z,31.31
2018-07-13T16:27:10.027Z,31.11
2018-07-13T16:29:38.702Z,30.89
2018-07-13T16:32:07.319Z,30.91
2018-07-13T16:34:36.013Z,30.94
2018-07-13T16:37:04.777Z,30.95
2018-07-13T16:39:34.763Z,30.76
2018-07-13T16:42:03.384Z,30.59
2018-07-13T16:44:32.047Z,30.54
2018-07-13T16:47:00.639Z,30.46
2018-07-13T16:49:29.249Z,30.51
2018-07-13T16:51:57.865Z,30.15
2018-07-13T16:54:26.547Z,30.28
2018-07-13T16:56:55.132Z,30.29
2018-07-13T16:59:23.725Z,30.35
2018-07-13T17:01:53.231Z,30.35
2018-07-13T17:04:21.849Z,30.27
2018-07-13T17:06:50.608Z,30.19
2018-07-13T17:09:19.227Z,30.18
2018-07-13T17:11:48.325Z,30.04
2018-07-13T17:14:16.878Z,29.93
2018-07-13T17:16:45.516Z,29.77
2018-07-13T17:19:14.160Z,29.62
2018-07-13T17:21:43.110Z,29.67
2018-07-13T17:24:11.763Z,29.76
2018-07-13T17:26:40.397Z,29.73
2018-07-13T17:29:09.506Z,29.62
2018-07-13T17:31:38.190Z,29.44
2018-07-13T17:34:07.074Z,29.35
2018-07-13T17:36:35.670Z,29.47
2018-07-13T17:39:05.019Z,29.49
2018-07-13T17:41:33.660Z,29.45
2018-07-13T17:44:02.286Z,29.41
2018-07-13T17:46:31.733Z,29.38
2018-07-13T17:49:00.462Z,29.40
2018-07-13T17:51:29.066Z,29.43
2018-07-13T17:53:57.820Z,29.43
2018-07-13T17:56:26.465Z,29.39
2018-07-13T17:58:55.177Z,29.37
2018-07-13T18:01:23.914Z,29.36
2018-07-13T18:03:52.604Z,29.27
2018-07-13T18:06:21.244Z,29.21
2018-07-13T18:08:50.203Z,29.20
2018-07-13T18:11:18.828Z,29.20
2018-07-13T18:13:47.469Z,29.10
2018-07-13T18:16:16.705Z,29.08
2018-07-13T18:18:45.603Z,29.03
2018-07-13T18:21:14.352Z,28.97
2018-07-13T18:23:43.097Z,28.93
2018-07-13T18:26:11.958Z,28.91
2018-07-13T18:28:40.752Z,28.89
2018-07-13T18:31:09.517Z,28.78
2018-07-13T18:33:38.216Z,28.70
2018-07-13T18:36:06.990Z,28.67
2018-07-13T18:38:35.738Z,28.62
2018-07-13T18:41:04.702Z,28.57
2018-07-13T18:43:33.473Z,28.44
2018-07-13T18:46:02.234Z,28.44
2018-07-13T18:48:30.913Z,28.42
2018-07-13T18:51:00.768Z,28.39
2018-07-13T18:53:29.584Z,28.33
2018-07-13T18:55:59.706Z,28.29
2018-07-13T18:58:28.585Z,28.24
2018-07-13T19:00:57.409Z,28.21
2018-07-13T19:03:26.081Z,28.16
2018-07-13T19:05:54.844Z,28.11
2018-07-13T19:08:23.542Z,28.05
2018-07-13T19:10:52.503Z,27.97
2018-07-13T19:13:21.219Z,27.89
2018-07-13T19:15:49.922Z,27.75
2018-07-13T19:18:19.699Z,27.63
2018-07-13T19:20:48.387Z,27.54
2018-07-13T19:23:17.795Z,27.48
2018-07-13T19:25:46.572Z,27.43
2018-07-13T19:28:15.338Z,27.38
2018-07-13T19:30:44.559Z,27.32
2018-07-13T19:33:13.281Z,27.27
2018-07-13T19:35:41.990Z,27.19
2018-07-13T19:38:10.744Z,27.15
2018-07-13T19:40:39.821Z,27.11
2018-07-13T19:43:09.205Z,27.01
2018-07-13T19:45:38.015Z,26.74
2018-07-13T19:48:07.172Z,26.57
2018-07-13T19:50:36.086Z,26.35
2018-07-13T19:53:04.878Z,26.41
2018-07-13T19:55:34.141Z,26.55
2018-07-13T19:58:04.383Z,26.59
2018-07-13T20:00:33.942Z,26.54
2018-07-13T20:03:06.350Z,26.57
2018-07-13T20:05:35.078Z,26.59
2018-07-13T20:08:04.413Z,26.55
2018-07-13T20:10:33.099Z,26.55
2018-07-13T20:13:01.889Z,26.60
2018-07-13T20:15:30.671Z,26.37
2018-07-13T20:18:00.548Z,26.18
2018-07-13T20:20:29.349Z,26.24
2018-07-13T20:22:58.051Z,26.29
2018-07-13T20:25:26.903Z,26.24
2018-07-13T20:27:56.850Z,25.88
2018-07-13T20:30:25.926Z,26.10
2018-07-13T20:32:54.671Z,26.18
2018-07-13T20:35:23.461Z,26.27
2018-07-13T20:37:52.170Z,26.34
2018-07-13T20:40:20.883Z,26.36
2018-07-13T20:42:49.660Z,26.38
2018-07-13T20:45:18.363Z,26.40
2018-07-13T20:47:47.490Z,26.40
2018-07-13T20:50:16.292Z,26.36
2018-07-13T20:52:45.798Z,26.15
2018-07-13T20:55:15.346Z,26.08
2018-07-13T20:57:44.377Z,25.98
2018-07-13T21:00:14.034Z,26.07
2018-07-13T21:02:42.723Z,26.08
2018-07-13T21:05:14.748Z,26.00
2018-07-13T21:07:43.980Z,25.94
2018-07-13T21:10:12.926Z,25.91
2018-07-13T21:12:41.705Z,25.88
2018-07-13T21:15:10.505Z,25.83
2018-07-13T21:17:40.243Z,25.75
2018-07-13T21:20:09.263Z,25.63
2018-07-13T21:22:37.853Z,25.58
2018-07-13T21:25:06.583Z,25.59
2018-07-13T21:27:35.548Z,25.57
2018-07-13T21:32:40.982Z,25.49
2018-07-13T21:35:09.728Z,25.42
2018-07-13T21:37:38.469Z,25.34
2018-07-13T21:40:07.127Z,25.29
2018-07-13T21:42:35.844Z,25.21
2018-07-13T21:45:05.461Z,24.96
2018-07-13T21:47:35.096Z,25.01
2018-07-13T21:50:03.937Z,25.02
2018-07-13T21:52:32.731Z,25.00
2018-07-13T21:55:01.457Z,24.77
2018-07-13T21:57:30.500Z,24.65
2018-07-13T21:59:59.253Z,24.61
2018-07-13T22:02:28.080Z,24.48
2018-07-13T22:04:56.784Z,24.52
2018-07-13T22:07:25.401Z,24.24
2018-07-13T22:09:54.032Z,24.39
2018-07-13T22:12:22.752Z,24.44
2018-07-13T22:14:51.413Z,24.48
2018-07-13T22:17:20.535Z,24.48
2018-07-13T22:19:49.224Z,24.45
2018-07-13T22:22:17.928Z,24.45
2018-07-13T22:24:46.740Z,24.34
2018-07-13T22:27:15.469Z,24.22
2018-07-13T22:29:44.683Z,24.16
2018-07-13T22:32:14.363Z,24.17
2018-07-13T22:34:43.044Z,24.12
2018-07-13T22:37:12.470Z,24.09
2018-07-13T22:39:41.177Z,24.10
2018-07-13T22:42:10.244Z,24.09
2018-07-13T22:44:38.933Z,24.06
2018-07-13T22:47:08.271Z,23.94
2018-07-13T22:49:36.887Z,23.83
2018-07-13T22:52:05.619Z,23.77
2018-07-13T22:54:34.298Z,23.76
2018-07-13T22:57:03.536Z,23.75
2018-07-13T22:59:32.321Z,23.71
2018-07-13T23:02:01.167Z,23.68
2018-07-13T23:04:30.544Z,23.66
2018-07-13T23:07:01.090Z,23.59
2018-07-13T23:09:30.736Z,23.45
2018-07-13T23:12:00.689Z,23.49
2018-07-13T23:14:31.222Z,23.46
2018-07-13T23:17:02.171Z,23.44
2018-07-13T23:19:32.298Z,23.29
2018-07-13T23:22:03.578Z,23.69
2018-07-13T23:24:32.838Z,23.35
2018-07-13T23:27:02.166Z,23.20
2018-07-13T23:29:31.641Z,23.08
2018-07-13T23:32:01.347Z,22.96
2018-07-13T23:34:30.112Z,22.81
2018-07-13T23:36:59.269Z,22.75
2018-07-13T23:39:29.054Z,22.73
2018-07-13T23:41:59.329Z,22.77
2018-07-13T23:44:28.119Z,22.77
2018-07-13T23:46:58.922Z,22.68
2018-07-13T23:49:28.780Z,22.52
2018-07-13T23:51:57.533Z,22.40
2018-07-13T23:54:26.391Z,22.24
2018-07-13T23:56:54.995Z,22.24
2018-07-13T23:59:24.305Z,22.35
